Terminal Aerodrome Forecast
Issued by NWS

Home | Current Version | Previous Version | Text Only | Print | Product List | Glossary On
Versions: 1 2 3 4 5 6 7 8 9 10 11 12 13 14 15 16 17
997
FTAK31 PAJN 290910 AAB
TAFAKT
TAF AMD
PAKT 290910Z 2909/3006 00000KT 4SM BR VCSH SCT008 OVC025
      TEMPO 2909/2910 1SM -SHRA BR BKN008 OVC025
     FM291000 14010KT 6SM -SHRA OVC010
     FM300300 VRB04KT P6SM VCSH SCT008 OVC025
      AMD LTD TO CLD VIS AND WIND TIL 291500=

USA.gov is the U.S. government's official web portal to all federal, state and local government web resources and services.